Time;durP1;ratioP1;P1;durP2;ratioP2;P2;SDS_P1;SDS_P2;PMS_P1;PMS_P2;Temp;Humidity;BMP_temperature;BMP_pressure;BME280_temperature;BME280_humidity;BME280_pressure;Samples;Min_cycle;Max_cycle;Signal;HPM_P1;HPM_P2
2021/12/19 00:02:36;;;;;;;10.55;6.97;;;;;;;6.75;84.25;103554.63;5138344;27;20071;-67
2021/12/19 00:10:30;;;;;;;10.63;6.87;;;;;;;6.76;84.37;103549.44;5136247;27;20078;-69
2021/12/19 00:12:57;;;;;;;10.45;7.00;;;;;;;6.77;84.26;103545.06;5134178;27;20694;-70
2021/12/19 00:15:23;;;;;;;12.00;7.47;;;;;;;6.76;84.36;103538.06;5136666;27;20460;-71
2021/12/19 00:17:49;;;;;;;12.77;7.53;;;;;;;6.77;84.19;103542.47;5135137;27;20035;-70
2021/12/19 00:20:14;;;;;;;14.23;7.85;;;;;;;6.75;84.25;103537.19;5134434;27;20067;-68
2021/12/19 00:22:40;;;;;;;14.27;8.30;;;;;;;6.76;84.30;103535.44;5136335;27;42991;-69
2021/12/19 00:25:07;;;;;;;15.85;8.77;;;;;;;6.73;84.23;103532.72;5137515;27;20043;-70
2021/12/19 00:27:32;;;;;;;13.73;8.00;;;;;;;6.67;84.54;103533.41;5137379;27;20040;-70
2021/12/19 00:29:58;;;;;;;16.00;8.68;;;;;;;6.66;84.62;103535.16;5119881;27;41984;-69
2021/12/19 00:32:24;;;;;;;14.90;8.80;;;;;;;6.64;84.72;103533.34;5136481;27;20497;-69
2021/12/19 00:34:51;;;;;;;16.00;9.25;;;;;;;6.64;84.79;103528.09;5135681;27;20046;-68
2021/12/19 00:37:21;;;;;;;15.43;9.05;;;;;;;6.63;84.86;103527.19;5137563;27;20043;-69
2021/12/19 00:39:48;;;;;;;17.90;9.68;;;;;;;6.64;84.77;103528.09;5137449;27;20482;-69
2021/12/19 00:42:30;;;;;;;15.70;8.70;;;;;;;6.63;85.01;103521.97;5135789;27;20075;-69
2021/12/19 00:44:58;;;;;;;17.75;9.35;;;;;;;6.63;85.12;103524.56;5136374;27;20448;-70
2021/12/19 00:47:23;;;;;;;18.42;9.63;;;;;;;6.63;85.34;103515.84;5134713;27;20051;-71
2021/12/19 00:49:49;;;;;;;16.80;9.48;;;;;;;6.63;85.51;103508.84;5128231;27;20089;-69
2021/12/19 00:52:14;;;;;;;20.45;10.25;;;;;;;6.65;85.38;103509.78;5133226;27;22082;-70
2021/12/19 00:54:40;;;;;;;17.73;10.15;;;;;;;6.65;85.48;103511.53;5126838;27;20140;-69
2021/12/19 00:57:05;;;;;;;22.98;10.80;;;;;;;6.64;85.59;103504.50;5135452;27;20465;-68
2021/12/19 00:59:31;;;;;;;21.15;10.07;;;;;;;6.62;85.83;103514.94;5136850;27;20091;-69
2021/12/19 01:01:56;;;;;;;24.38;12.23;;;;;;;6.63;85.86;103511.47;5136365;27;20062;-69
2021/12/19 01:04:22;;;;;;;24.42;11.52;;;;;;;6.61;85.99;103513.19;5135762;27;41873;-69
2021/12/19 01:06:48;;;;;;;24.27;11.77;;;;;;;6.60;86.10;103502.63;5136917;27;20100;-69
2021/12/19 01:09:15;;;;;;;23.98;11.95;;;;;;;6.59;86.11;103503.47;5135817;27;20044;-67
2021/12/19 01:11:40;;;;;;;28.42;11.57;;;;;;;6.55;86.28;103504.25;5132219;27;20115;-69
2021/12/19 01:14:08;;;;;;;32.55;12.93;;;;;;;6.53;86.55;103498.94;5130694;27;20084;-69
2021/12/19 01:16:34;;;;;;;29.20;12.35;;;;;;;6.52;86.51;103498.06;5134381;27;20055;-69
2021/12/19 01:18:59;;;;;;;31.75;13.25;;;;;;;6.48;86.72;103493.56;5133186;27;20416;-70
2021/12/19 01:21:25;;;;;;;29.90;12.77;;;;;;;6.47;86.82;103493.53;5136361;27;20050;-71
2021/12/19 01:23:51;;;;;;;33.33;12.35;;;;;;;6.44;86.83;103489.09;5135827;27;20657;-70
2021/12/19 01:26:16;;;;;;;44.45;14.27;;;;;;;6.42;86.85;103488.16;5135299;27;20039;-70
2021/12/19 01:28:43;;;;;;;42.45;13.43;;;;;;;6.41;86.98;103485.50;5134817;27;20424;-70
2021/12/19 01:31:11;;;;;;;38.30;13.52;;;;;;;6.39;87.11;103493.31;5136044;27;20097;-70
2021/12/19 01:33:37;;;;;;;42.15;13.88;;;;;;;6.37;87.20;103484.50;5136373;27;20126;-69
2021/12/19 01:36:05;;;;;;;38.97;13.70;;;;;;;6.35;87.31;103487.09;5136171;27;20035;-69
2021/12/19 01:38:31;;;;;;;55.15;14.38;;;;;;;6.30;87.36;103491.31;5136370;27;20032;-71
2021/12/19 01:40:57;;;;;;;44.17;13.70;;;;;;;6.29;87.44;103483.38;5134790;27;20048;-69
2021/12/19 01:43:25;;;;;;;39.80;14.55;;;;;;;6.30;87.56;103482.53;5118150;27;20157;-71
2021/12/19 01:45:53;;;;;;;41.38;13.50;;;;;;;6.30;87.64;103493.03;5135537;27;20126;-71
2021/12/19 01:48:20;;;;;;;43.53;14.57;;;;;;;6.32;87.61;103492.22;5132317;27;20052;-70
2021/12/19 01:50:46;;;;;;;39.15;13.00;;;;;;;6.33;87.41;103488.75;5136106;27;20109;-69
2021/12/19 01:53:12;;;;;;;55.33;14.93;;;;;;;6.31;87.55;103489.56;5135048;27;20085;-69
2021/12/19 01:55:42;;;;;;;50.00;14.30;;;;;;;6.31;87.31;103481.72;5134667;27;20040;-66
2021/12/19 01:58:08;;;;;;;48.50;14.55;;;;;;;6.28;87.63;103477.28;5135415;27;20039;-69
2021/12/19 02:00:42;;;;;;;52.35;14.75;;;;;;;6.28;87.71;103479.91;5134895;27;20047;-69
2021/12/19 02:03:10;;;;;;;48.85;14.40;;;;;;;6.24;87.71;103472.78;5134320;27;20578;-69
2021/12/19 02:05:36;;;;;;;69.25;16.38;;;;;;;6.25;87.78;103474.56;5134257;27;20039;-67
2021/12/19 02:08:03;;;;;;;52.28;15.43;;;;;;;6.24;87.81;103477.13;5117691;27;20039;-69
2021/12/19 02:10:32;;;;;;;46.33;14.82;;;;;;;6.19;87.96;103471.75;5131757;27;20036;-68
2021/12/19 02:13:01;;;;;;;46.90;13.35;;;;;;;6.16;87.58;103476.91;5131957;27;20040;-68
2021/12/19 02:15:30;;;;;;;52.22;13.05;;;;;;;6.13;87.77;103468.94;5133285;27;20040;-68
2021/12/19 02:18:01;;;;;;;35.03;11.13;;;;;;;6.10;87.53;103476.72;5124734;27;20044;-69
2021/12/19 02:20:40;;;;;;;27.50;9.55;;;;;;;6.05;87.45;103469.59;5133974;27;20040;-70
2021/12/19 02:23:06;;;;;;;30.58;10.05;;;;;;;6.00;87.33;103468.56;5123024;27;20548;-69
2021/12/19 02:25:32;;;;;;;33.28;10.57;;;;;;;5.98;87.41;103471.94;5135505;27;20042;-70
2021/12/19 02:27:58;;;;;;;29.88;10.07;;;;;;;5.94;87.26;103467.47;5131596;27;20039;-70
2021/12/19 02:30:25;;;;;;;25.17;9.75;;;;;;;5.90;87.16;103462.13;5132074;27;20097;-71
2021/12/19 02:32:50;;;;;;;29.48;10.20;;;;;;;5.86;87.36;103469.84;5131838;27;20043;-71
2021/12/19 02:35:22;;;;;;;25.88;9.68;;;;;;;5.85;87.22;103457.59;5138564;27;20066;-70
2021/12/19 02:48:34;;;;;;;34.67;12.93;;;;;;;5.80;87.18;103441.75;5136864;27;20039;-68
2021/12/19 02:51:01;;;;;;;36.40;13.52;;;;;;;5.81;87.23;103440.91;5129442;27;20461;-70
2021/12/19 02:53:42;;;;;;;41.83;14.73;;;;;;;5.81;87.17;103438.28;5138324;27;20044;-70
2021/12/19 02:56:10;;;;;;;45.85;15.00;;;;;;;5.80;87.77;103446.09;5120086;27;20051;-70
2021/12/19 02:58:39;;;;;;;53.38;15.55;;;;;;;5.81;87.47;103443.50;5139170;27;20758;-67
2021/12/19 03:01:15;;;;;;;58.25;16.88;;;;;;;5.83;87.61;103435.69;5138546;27;20073;-67
2021/12/19 03:03:41;;;;;;;71.90;21.50;;;;;;;5.82;87.45;103428.69;5120330;27;20047;-68
2021/12/19 03:06:07;;;;;;;90.20;20.95;;;;;;;5.81;87.52;103432.13;5137939;27;20485;-69
2021/12/19 03:08:35;;;;;;;84.20;22.00;;;;;;;5.77;87.55;103425.91;5138652;27;20039;-71
2021/12/19 03:18:55;;;;;;;32.28;12.95;;;;;;;5.70;87.62;103426.59;5129621;27;20035;-71
2021/12/19 03:21:24;;;;;;;34.35;14.02;;;;;;;5.69;87.27;103430.03;5136531;27;20374;-71
2021/12/19 03:23:49;;;;;;;37.63;13.80;;;;;;;5.65;87.54;103422.91;5137350;27;20093;-72
2021/12/19 03:26:15;;;;;;;37.28;14.32;;;;;;;5.64;87.23;103427.28;5137386;27;25274;-71
2021/12/19 03:28:41;;;;;;;34.25;14.35;;;;;;;5.61;87.25;103424.56;5137923;27;25428;-71
2021/12/19 03:31:06;;;;;;;27.00;12.90;;;;;;;5.58;87.49;103417.50;5118981;27;20050;-70
2021/12/19 03:33:35;;;;;;;36.97;14.00;;;;;;;5.56;87.55;103420.91;5129606;27;27087;-70
2021/12/19 03:36:01;;;;;;;28.70;12.55;;;;;;;5.57;87.46;103413.09;5131065;27;20047;-69
2021/12/19 03:38:27;;;;;;;30.13;13.00;;;;;;;5.54;87.40;103414.72;5137968;27;20036;-70
2021/12/19 03:41:08;;;;;;;30.75;12.75;;;;;;;5.51;87.48;103417.25;5137471;27;20750;-69
2021/12/19 03:43:33;;;;;;;31.50;12.75;;;;;;;5.51;87.72;103409.41;5136623;27;20083;-68
2021/12/19 03:45:59;;;;;;;23.38;11.38;;;;;;;5.52;87.50;103412.09;5119168;27;20118;-69
2021/12/19 03:48:25;;;;;;;27.75;11.82;;;;;;;5.53;87.45;103402.50;5137428;27;23161;-68
2021/12/19 03:50:50;;;;;;;25.60;10.75;;;;;;;5.51;87.47;103398.94;5136022;27;20035;-70
2021/12/19 03:53:21;;;;;;;22.83;10.75;;;;;;;5.51;87.54;103401.53;5135916;27;20092;-70
2021/12/19 03:55:47;;;;;;;28.55;10.73;;;;;;;5.51;87.50;103398.94;5136648;27;20085;-68
2021/12/19 03:58:14;;;;;;;26.92;10.57;;;;;;;5.48;87.58;103388.38;5118723;27;20035;-67
2021/12/19 04:00:43;;;;;;;22.88;10.15;;;;;;;5.47;87.68;103382.25;5134025;27;20052;-67
2021/12/19 04:03:10;;;;;;;20.02;9.25;;;;;;;5.49;87.46;103385.81;5117133;27;20410;-67
2021/12/19 04:05:42;;;;;;;20.75;10.07;;;;;;;5.47;87.61;103370.91;5137173;27;20028;-68
2021/12/19 04:08:07;;;;;;;26.05;10.32;;;;;;;5.44;87.69;103372.59;5112104;27;20039;-69
2021/12/19 04:10:33;;;;;;;25.63;9.63;;;;;;;5.46;87.83;103370.00;5135747;27;43044;-67
2021/12/19 04:12:58;;;;;;;19.95;10.05;;;;;;;5.46;87.76;103359.53;5135739;27;20050;-69
2021/12/19 04:15:24;;;;;;;21.13;9.05;;;;;;;5.47;87.88;103363.94;5135184;27;20042;-68
2021/12/19 04:17:50;;;;;;;18.75;8.48;;;;;;;5.49;87.61;103350.91;5136494;27;20448;-69
2021/12/19 04:20:18;;;;;;;18.70;8.48;;;;;;;5.48;87.64;103346.53;5132937;27;20028;-70
2021/12/19 04:22:45;;;;;;;15.20;7.18;;;;;;;5.51;87.73;103342.28;5137106;27;20486;-69
2021/12/19 04:25:12;;;;;;;15.02;7.85;;;;;;;5.56;87.77;103338.06;5132044;27;20032;-70
2021/12/19 04:27:37;;;;;;;13.82;7.13;;;;;;;5.60;87.54;103336.41;5137644;27;20040;-69
2021/12/19 04:30:06;;;;;;;14.90;6.97;;;;;;;5.58;87.45;103327.66;5135733;27;29498;-70
2021/12/19 04:32:36;;;;;;;16.08;6.70;;;;;;;5.59;87.43;103326.81;5136070;27;20051;-69
2021/12/19 04:35:04;;;;;;;13.23;5.90;;;;;;;5.60;87.25;103312.84;5137203;27;20122;-68
2021/12/19 04:40:28;;;;;;;17.38;6.97;;;;;;;5.57;87.05;103321.50;5129184;27;20035;-68
2021/12/19 04:53:46;;;;;;;21.98;7.03;;;;;;;5.47;87.28;103311.59;5135261;27;20138;-69
2021/12/19 05:04:36;;;;;;;19.38;7.53;;;;;;;5.44;87.63;103306.31;5136662;27;20028;-67
2021/12/19 05:14:46;;;;;;;22.25;7.38;;;;;;;5.58;87.50;103318.06;5065816;27;20063;-69
2021/12/19 05:17:18;;;;;;;20.33;6.68;;;;;;;5.60;87.35;103320.72;5134796;27;20115;-69
2021/12/19 05:19:48;;;;;;;20.35;6.90;;;;;;;5.58;87.35;103318.06;5137066;27;20035;-68
2021/12/19 05:22:14;;;;;;;21.92;6.97;;;;;;;5.58;87.42;103312.81;5134928;27;20133;-69
2021/12/19 05:25:00;;;;;;;19.55;6.72;;;;;;;5.59;87.43;103311.97;5123580;27;20044;-69
2021/12/19 05:27:26;;;;;;;16.27;6.22;;;;;;;5.57;87.29;103305.81;5134405;27;20126;-69
2021/12/19 05:29:52;;;;;;;15.35;6.75;;;;;;;5.57;87.52;103305.81;5131447;27;20088;-70
2021/12/19 05:32:17;;;;;;;13.82;5.65;;;;;;;5.60;87.42;103299.78;5117416;27;20060;-70
2021/12/19 05:34:43;;;;;;;16.25;5.75;;;;;;;5.59;87.46;103306.75;5135369;27;20035;-69
2021/12/19 05:45:22;;;;;;;13.10;5.40;;;;;;;5.70;87.33;103307.06;5133402;27;20520;-67
2021/12/19 05:47:50;;;;;;;10.43;5.15;;;;;;;5.73;87.03;103301.03;5132099;27;40315;-66
2021/12/19 05:50:20;;;;;;;14.25;5.00;;;;;;;5.73;87.05;103308.91;5131878;27;20471;-65
2021/12/19 05:52:48;;;;;;;13.73;5.43;;;;;;;5.72;87.07;103309.72;5133187;27;20043;-65
2021/12/19 05:55:16;;;;;;;8.98;4.57;;;;;;;5.71;86.93;103308.81;5129603;27;20070;-65
2021/12/19 05:57:43;;;;;;;11.50;4.78;;;;;;;5.70;87.03;103301.81;5132178;27;20036;-68
2021/12/19 06:00:14;;;;;;;13.80;5.28;;;;;;;5.71;86.91;103307.97;5132767;27;20050;-66
2021/12/19 06:02:41;;;;;;;17.05;5.45;;;;;;;5.70;87.06;103308.78;5132241;27;20512;-67
2021/12/19 06:05:08;;;;;;;17.20;6.40;;;;;;;5.72;87.07;103294.91;5131358;27;20047;-71
2021/12/19 06:07:34;;;;;;;13.40;5.28;;;;;;;5.70;86.99;103278.25;5132858;27;20036;-65
2021/12/19 06:10:00;;;;;;;12.25;4.90;;;;;;;5.74;87.13;103279.25;5132734;27;20393;-67
2021/12/19 06:12:26;;;;;;;12.35;5.45;;;;;;;5.75;86.96;103283.63;5132117;27;20035;-68
2021/12/19 06:14:52;;;;;;;15.95;5.53;;;;;;;5.74;86.89;103279.25;5132409;27;27479;-68
2021/12/19 06:17:18;;;;;;;13.65;5.20;;;;;;;5.72;86.95;103280.94;5130913;27;20039;-67
2021/12/19 06:19:44;;;;;;;11.73;5.47;;;;;;;5.72;87.28;103289.66;5132728;27;20044;-67
2021/12/19 06:22:09;;;;;;;12.52;5.30;;;;;;;5.74;86.88;103284.50;5131968;27;40301;-67
2021/12/19 06:24:36;;;;;;;10.73;5.20;;;;;;;5.74;86.75;103280.13;5113848;27;20926;-69
2021/12/19 06:27:02;;;;;;;12.13;5.68;;;;;;;5.71;86.81;103276.56;5130047;27;20028;-67
2021/12/19 06:29:31;;;;;;;12.10;4.93;;;;;;;5.69;86.84;103270.38;5130493;27;20089;-68
2021/12/19 06:31:57;;;;;;;12.10;5.30;;;;;;;5.73;86.99;103269.63;5132240;27;20470;-73
2021/12/19 06:34:23;;;;;;;14.15;5.65;;;;;;;5.74;86.99;103266.19;5130357;27;20150;-72
2021/12/19 06:36:51;;;;;;;15.32;5.40;;;;;;;5.73;86.78;103265.28;5132069;27;20040;-69
2021/12/19 06:39:19;;;;;;;14.65;5.60;;;;;;;5.71;86.79;103272.19;5132395;27;20469;-68
2021/12/19 06:41:45;;;;;;;12.95;5.60;;;;;;;5.69;86.97;103273.91;5131965;27;20036;-67
2021/12/19 06:44:12;;;;;;;12.48;5.10;;;;;;;5.70;86.78;103267.78;5132662;27;20047;-67
2021/12/19 06:46:37;;;;;;;13.77;5.35;;;;;;;5.70;87.03;103272.16;5116559;27;20039;-68
2021/12/19 06:49:03;;;;;;;14.43;4.53;;;;;;;5.72;86.90;103273.97;5130822;27;20036;-68
2021/12/19 06:51:32;;;;;;;13.63;4.90;;;;;;;5.72;86.86;103262.63;5129632;27;20035;-69
2021/12/19 06:53:58;;;;;;;18.48;4.95;;;;;;;5.69;87.04;103258.19;5131766;27;20044;-69
2021/12/19 06:56:24;;;;;;;14.25;5.50;;;;;;;5.68;87.31;103250.28;5132865;27;20039;-70
2021/12/19 06:58:50;;;;;;;12.45;5.07;;;;;;;5.68;87.28;103248.56;5131533;27;20044;-70
2021/12/19 07:01:16;;;;;;;12.32;5.07;;;;;;;5.70;87.47;103253.84;5132569;27;20096;-71
2021/12/19 07:03:41;;;;;;;11.85;4.55;;;;;;;5.72;87.34;103247.78;5129928;27;30127;-70
2021/12/19 07:06:07;;;;;;;10.43;5.00;;;;;;;5.76;87.43;103246.13;5125585;27;20040;-68
2021/12/19 07:08:33;;;;;;;16.27;4.75;;;;;;;5.81;87.37;103254.13;5128739;27;20119;-66
2021/12/19 07:10:58;;;;;;;12.68;4.43;;;;;;;5.82;87.41;103251.56;5131901;27;20071;-69
2021/12/19 07:13:24;;;;;;;13.40;4.80;;;;;;;5.83;87.25;103245.50;5131776;27;35036;-69
2021/12/19 07:15:52;;;;;;;11.70;4.50;;;;;;;5.83;87.23;103239.34;5132015;27;20546;-70
2021/12/19 07:18:18;;;;;;;16.45;5.20;;;;;;;5.83;87.16;103242.88;5131082;27;20035;-67
2021/12/19 07:20:44;;;;;;;19.67;5.20;;;;;;;5.83;87.19;103240.25;5134630;27;20757;-70
2021/12/19 07:23:20;;;;;;;14.52;4.95;;;;;;;5.86;87.24;103239.44;5135811;27;20448;-70
2021/12/19 07:25:46;;;;;;;14.25;5.55;;;;;;;5.85;87.03;103238.53;5135743;27;20071;-68
2021/12/19 07:28:12;;;;;;;17.45;5.45;;;;;;;5.84;87.08;103236.81;5135544;27;20130;-69
2021/12/19 07:30:38;;;;;;;17.13;5.40;;;;;;;5.83;87.23;103237.63;5135098;27;20148;-68
2021/12/19 07:33:07;;;;;;;19.08;5.97;;;;;;;5.83;87.38;103240.25;5134170;27;20168;-67
2021/12/19 07:35:37;;;;;;;16.67;6.38;;;;;;;5.85;87.33;103240.28;5135625;27;20085;-66
2021/12/19 07:38:05;;;;;;;18.55;6.68;;;;;;;5.85;87.39;103238.53;5135130;27;20050;-65
2021/12/19 07:40:39;;;;;;;20.02;6.85;;;;;;;5.87;87.49;103242.09;5129861;27;20566;-65
2021/12/19 07:43:10;;;;;;;20.02;6.03;;;;;;;5.90;87.55;103231.72;5135552;27;20043;-65
2021/12/19 07:45:37;;;;;;;20.73;5.78;;;;;;;5.95;87.64;103231.84;5134085;27;20044;-68
2021/12/19 07:48:04;;;;;;;18.52;6.05;;;;;;;5.97;87.56;103222.31;5135706;27;20039;-70
2021/12/19 07:50:32;;;;;;;16.02;5.93;;;;;;;6.00;87.39;103227.63;5119070;27;20040;-72
2021/12/19 07:52:58;;;;;;;21.65;6.57;;;;;;;6.01;87.40;103225.91;5136386;27;20462;-70
2021/12/19 07:55:25;;;;;;;15.30;5.35;;;;;;;6.02;87.44;103228.56;5130047;27;20160;-70
2021/12/19 07:57:51;;;;;;;16.80;5.82;;;;;;;6.06;87.39;103216.44;5135590;27;20032;-70
2021/12/19 08:00:20;;;;;;;16.67;5.50;;;;;;;6.05;87.12;103220.81;5133632;27;20067;-69
2021/12/19 08:02:48;;;;;;;16.50;6.10;;;;;;;6.08;87.26;103214.75;5131200;27;20074;-71
2021/12/19 08:05:16;;;;;;;13.88;5.47;;;;;;;6.10;87.38;103218.31;5133857;27;20039;-68
2021/12/19 08:07:46;;;;;;;15.05;5.53;;;;;;;6.13;87.28;103207.91;5128733;27;20383;-66
2021/12/19 08:12:40;;;;;;;15.38;5.57;;;;;;;6.15;87.42;103214.09;5131782;27;20120;-65
2021/12/19 08:15:08;;;;;;;19.17;6.28;;;;;;;6.19;87.55;103215.94;5134718;27;20440;-66
2021/12/19 08:17:34;;;;;;;19.15;6.65;;;;;;;6.24;87.55;103212.56;5134695;27;20105;-66
2021/12/19 08:20:03;;;;;;;18.60;6.90;;;;;;;6.31;87.46;103211.84;5131763;27;20146;-66
2021/12/19 08:22:30;;;;;;;18.20;7.32;;;;;;;6.33;87.20;103205.78;5117136;27;20047;-66
2021/12/19 08:24:57;;;;;;;17.38;7.18;;;;;;;6.33;87.31;103205.78;5134708;27;20138;-66
2021/12/19 08:27:24;;;;;;;16.17;6.82;;;;;;;6.35;87.29;103208.47;5104768;28;20040;-66
2021/12/19 08:29:51;;;;;;;20.55;6.88;;;;;;;6.38;87.27;103208.53;5125345;27;20032;-66
2021/12/19 08:32:18;;;;;;;21.13;7.35;;;;;;;6.41;87.23;103207.75;5135284;27;20058;-66
2021/12/19 08:34:43;;;;;;;17.00;6.45;;;;;;;6.43;87.13;103206.94;5135069;27;20035;-66
2021/12/19 08:37:09;;;;;;;16.98;6.10;;;;;;;6.44;87.06;103203.47;5133992;27;20043;-66
2021/12/19 08:39:38;;;;;;;15.77;6.15;;;;;;;6.47;87.12;103202.66;5135210;27;20130;-66
2021/12/19 08:42:06;;;;;;;16.33;6.15;;;;;;;6.46;87.29;103200.88;5135049;27;20108;-66
2021/12/19 08:44:33;;;;;;;18.60;5.90;;;;;;;6.48;87.23;103201.78;5137217;27;20114;-67
2021/12/19 08:46:58;;;;;;;13.13;4.90;;;;;;;6.49;87.14;103203.56;5134418;27;20137;-66
2021/12/19 08:49:25;;;;;;;11.02;4.40;;;;;;;6.50;87.13;103200.09;5116440;27;20062;-66
2021/12/19 08:51:50;;;;;;;10.73;4.40;;;;;;;6.49;86.89;103193.97;5117194;27;20394;-65
2021/12/19 08:54:16;;;;;;;5.22;2.78;;;;;;;6.48;86.61;103194.81;5115818;27;20036;-64
2021/12/19 08:56:41;;;;;;;4.10;2.03;;;;;;;6.47;85.99;103195.66;5134900;27;20120;-65
2021/12/19 08:59:10;;;;;;;3.80;2.10;;;;;;;6.47;85.83;103195.66;5131871;27;29204;-66
2021/12/19 09:01:36;;;;;;;3.92;2.30;;;;;;;6.52;85.82;103193.16;5132991;27;20449;-65
2021/12/19 09:04:03;;;;;;;3.05;1.70;;;;;;;6.58;85.75;103195.03;5134641;27;20367;-65
2021/12/19 09:06:29;;;;;;;4.10;2.03;;;;;;;6.62;85.78;103199.50;5130695;27;20032;-64
2021/12/19 09:08:55;;;;;;;2.83;1.42;;;;;;;6.64;85.28;103197.81;5130345;27;20066;-66
2021/12/19 09:11:22;;;;;;;2.70;1.20;;;;;;;6.66;84.98;103199.63;5131783;27;33832;-66
2021/12/19 09:13:48;;;;;;;2.40;1.08;;;;;;;6.67;84.51;103201.41;5133662;27;20654;-65
2021/12/19 09:16:14;;;;;;;1.17;0.85;;;;;;;6.65;83.90;103189.09;5131228;27;20043;-67
2021/12/19 09:18:39;;;;;;;1.58;0.85;;;;;;;6.63;83.83;103186.44;5132747;27;20058;-69
2021/12/19 09:21:05;;;;;;;1.65;1.10;;;;;;;6.64;83.77;103185.59;5106283;27;20047;-67
2021/12/19 09:23:33;;;;;;;1.83;1.10;;;;;;;6.64;83.49;103185.59;5132529;27;20036;-63
2021/12/19 09:25:59;;;;;;;1.50;0.95;;;;;;;6.65;83.66;103187.34;5125441;27;20031;-66
2021/12/19 09:28:25;;;;;;;1.90;1.10;;;;;;;6.71;83.72;103202.34;5134398;27;20043;-67
2021/12/19 09:30:51;;;;;;;1.45;1.00;;;;;;;6.75;83.57;103196.34;5134666;27;20038;-63
2021/12/19 09:33:17;;;;;;;1.50;0.88;;;;;;;6.81;83.43;103193.84;5132965;27;20138;-64
2021/12/19 09:35:42;;;;;;;0.90;0.63;;;;;;;6.86;82.87;103199.19;5132585;27;22613;-64
2021/12/19 09:38:08;;;;;;;1.10;0.70;;;;;;;6.84;82.69;103199.16;5133522;27;20039;-65
2021/12/19 09:40:38;;;;;;;1.63;0.85;;;;;;;6.78;82.84;103199.00;5131846;27;20087;-67
2021/12/19 09:43:11;;;;;;;2.40;0.95;;;;;;;6.77;82.84;103197.22;5136576;27;20043;-66
2021/12/19 09:45:37;;;;;;;1.27;0.73;;;;;;;6.80;82.75;103194.69;5125330;27;20040;-68
2021/12/19 09:48:03;;;;;;;2.10;0.98;;;;;;;6.83;82.96;103192.16;5135484;27;20027;-66
2021/12/19 09:50:30;;;;;;;1.08;0.60;;;;;;;6.87;82.68;103192.22;5112704;27;20052;-63
2021/12/19 09:52:56;;;;;;;1.23;0.80;;;;;;;6.87;82.44;103198.34;5107239;28;20489;-64
2021/12/19 09:55:22;;;;;;;1.88;0.93;;;;;;;6.87;82.82;103187.00;5073603;27;20105;-68
2021/12/19 09:57:51;;;;;;;1.50;0.90;;;;;;;6.90;82.83;103206.28;5123817;27;28290;-66
2021/12/19 10:00:18;;;;;;;1.80;1.20;;;;;;;6.89;82.89;103193.13;5126570;27;20048;-65
2021/12/19 10:02:44;;;;;;;1.10;0.75;;;;;;;6.90;82.69;103194.91;5133758;27;20046;-65
2021/12/19 10:05:23;;;;;;;2.38;0.90;;;;;;;6.86;82.66;103188.72;5131409;27;20035;-67
2021/12/19 10:07:56;;;;;;;2.67;0.82;;;;;;;6.82;82.79;103193.00;5142548;27;20036;-66
2021/12/19 10:11:00;;;;;;;2.47;0.77;;;;;;;6.82;82.77;103190.38;5132658;27;20390;-66
2021/12/19 10:13:35;;;;;;;1.08;0.60;;;;;;;6.80;82.79;103193.81;5131309;27;20118;-66
2021/12/19 10:16:01;;;;;;;1.35;0.70;;;;;;;6.79;82.44;103185.06;5122741;27;20043;-66
2021/12/19 10:18:27;;;;;;;2.58;1.15;;;;;;;6.86;82.41;103174.72;5132378;27;20107;-69
2021/12/19 10:20:59;;;;;;;1.63;0.90;;;;;;;6.91;81.99;103175.69;5127657;27;20096;-66
2021/12/19 10:23:30;;;;;;;1.23;0.57;;;;;;;6.93;81.59;103172.25;5114829;27;20032;-67
2021/12/19 10:25:55;;;;;;;2.20;0.60;;;;;;;6.93;81.64;103163.50;5127707;27;20478;-68
2021/12/19 10:28:21;;;;;;;0.90;0.50;;;;;;;6.92;81.82;103162.59;5135195;27;20036;-66
2021/12/19 10:30:49;;;;;;;0.52;0.32;;;;;;;6.92;80.92;103159.97;5133738;27;20043;-66
2021/12/19 10:33:17;;;;;;;0.88;0.50;;;;;;;6.95;80.94;103153.94;5131745;27;20473;-66
2021/12/19 10:35:46;;;;;;;0.93;0.40;;;;;;;6.96;80.69;103153.97;5129352;27;20048;-67
2021/12/19 10:38:25;;;;;;;2.28;0.57;;;;;;;6.99;80.60;103147.91;5133880;27;20035;-68
2021/12/19 10:41:17;;;;;;;1.58;0.50;;;;;;;6.99;80.73;103153.16;5133969;27;20051;-65
2021/12/19 10:46:42;;;;;;;1.60;0.80;;;;;;;6.90;80.95;103137.22;5116172;27;20066;-65
2021/12/19 10:49:29;;;;;;;1.80;0.90;;;;;;;6.84;81.21;103127.47;5133503;27;20386;-66
2021/12/19 10:52:01;;;;;;;2.88;1.40;;;;;;;6.82;81.18;103126.53;5132716;27;20039;-66
2021/12/19 10:54:28;;;;;;;3.60;1.50;;;;;;;6.80;81.40;103121.28;5139085;27;20043;-64
2021/12/19 10:57:07;;;;;;;3.22;1.42;;;;;;;6.78;81.50;103111.63;5116614;27;20565;-65
2021/12/19 10:59:34;;;;;;;2.72;1.50;;;;;;;6.75;81.90;103114.16;5137785;27;20047;-69
2021/12/19 11:02:00;;;;;;;2.05;1.50;;;;;;;6.76;81.97;103111.59;5138147;27;20071;-66
2021/12/19 11:04:26;;;;;;;1.67;1.30;;;;;;;6.74;82.46;103109.78;5139410;27;20058;-66
2021/12/19 11:06:59;;;;;;;4.03;1.80;;;;;;;6.77;82.13;103117.72;5138729;27;20044;-66
2021/12/19 11:09:31;;;;;;;2.80;1.73;;;;;;;6.74;81.98;103102.81;5132266;27;20039;-66
2021/12/19 11:11:59;;;;;;;2.63;1.83;;;;;;;6.73;82.25;103100.13;5135569;27;20105;-66
2021/12/19 11:14:27;;;;;;;4.18;2.28;;;;;;;6.72;82.21;103101.88;5135873;27;20031;-67
2021/12/19 11:16:57;;;;;;;3.05;1.70;;;;;;;6.73;82.53;103101.03;5137181;27;20050;-67
2021/12/19 11:19:24;;;;;;;4.70;2.15;;;;;;;6.73;82.63;103095.78;5131460;27;20047;-66
2021/12/19 11:21:50;;;;;;;3.58;2.20;;;;;;;6.76;82.43;103097.59;5133352;27;20040;-67
2021/12/19 11:24:19;;;;;;;4.15;2.20;;;;;;;6.75;82.62;103099.34;5135993;27;33369;-67
2021/12/19 11:26:50;;;;;;;4.50;1.48;;;;;;;6.73;82.68;103095.78;5134718;27;20108;-66
2021/12/19 11:29:17;;;;;;;3.80;1.42;;;;;;;6.72;82.51;103096.63;5136790;27;20050;-67
2021/12/19 11:31:47;;;;;;;4.70;1.42;;;;;;;6.71;82.26;103084.38;5134468;27;20047;-65
2021/12/19 11:34:17;;;;;;;2.97;1.40;;;;;;;6.70;82.28;103086.97;5132642;27;20155;-65
2021/12/19 11:36:50;;;;;;;2.75;1.20;;;;;;;6.68;82.13;103072.09;5130306;27;20480;-66
2021/12/19 11:39:17;;;;;;;2.55;1.38;;;;;;;6.68;82.76;103072.09;5134995;27;20044;-68
2021/12/19 11:42:11;;;;;;;3.15;1.60;;;;;;;6.73;82.63;103068.66;5127707;27;20032;-69
2021/12/19 11:47:37;;;;;;;2.17;1.30;;;;;;;6.75;82.79;103062.63;5136950;27;20052;-69
2021/12/19 11:50:16;;;;;;;1.70;1.42;;;;;;;6.76;82.87;103061.78;5129414;27;20062;-69
2021/12/19 11:52:41;;;;;;;2.40;1.52;;;;;;;6.78;82.93;103057.44;5122587;27;20039;-69
2021/12/19 11:55:13;;;;;;;2.85;1.70;;;;;;;6.77;82.93;103058.28;5135038;27;41788;-69
2021/12/19 11:57:38;;;;;;;3.13;1.70;;;;;;;6.77;82.82;103054.78;5135055;27;41521;-70
2021/12/19 12:00:32;;;;;;;5.70;2.20;;;;;;;6.78;82.76;103051.31;5129876;27;20062;-69
2021/12/19 12:03:13;;;;;;;3.58;1.77;;;;;;;6.78;82.79;103044.31;5126283;27;20165;-69
2021/12/19 12:05:39;;;;;;;3.65;2.22;;;;;;;6.79;82.56;103045.22;5135938;27;20050;-69
2021/12/19 12:08:04;;;;;;;3.92;1.77;;;;;;;6.77;82.41;103039.94;5134574;27;42062;-69
2021/12/19 12:10:52;;;;;;;5.78;1.90;;;;;;;6.78;82.37;103041.69;5133486;27;20044;-69
2021/12/19 12:13:38;;;;;;;4.45;2.05;;;;;;;6.75;82.08;103036.41;5128290;27;20069;-70
2021/12/19 12:16:35;;;;;;;4.53;2.05;;;;;;;6.78;80.85;103031.22;5129111;27;20048;-69
2021/12/19 12:19:02;;;;;;;2.50;1.75;;;;;;;6.75;80.95;103025.94;5123852;27;20050;-68
2021/12/19 12:24:17;;;;;;;6.18;2.15;;;;;;;6.74;80.39;103015.38;5113242;27;20149;-68
2021/12/19 12:27:00;;;;;;;5.70;2.45;;;;;;;6.78;81.01;103019.84;5129626;27;20058;-67
2021/12/19 12:29:26;;;;;;;5.38;2.80;;;;;;;6.80;81.12;103029.50;5133974;27;20505;-69
2021/12/19 12:31:53;;;;;;;9.35;3.80;;;;;;;6.80;81.35;103021.66;5130947;27;20063;-65
2021/12/19 12:34:21;;;;;;;9.00;5.10;;;;;;;6.80;81.61;103019.03;5135653;27;20036;-69
2021/12/19 12:36:47;;;;;;;8.57;4.00;;;;;;;6.80;81.61;103016.41;5134736;27;20039;-69
2021/12/19 12:39:25;;;;;;;5.90;2.90;;;;;;;6.81;81.76;103017.31;5133995;27;20477;-69
2021/12/19 12:42:00;;;;;;;8.30;3.10;;;;;;;6.80;81.87;103007.66;5135128;27;20431;-66
2021/12/19 12:44:27;;;;;;;6.47;3.13;;;;;;;6.80;81.98;103007.66;5142464;27;20036;-69
2021/12/19 12:46:54;;;;;;;5.18;2.75;;;;;;;6.79;81.60;103011.16;5134724;27;20040;-67